createdAt,value
2022-10-12T00:01:35.562Z,93.64
2022-10-12T00:06:40.273Z,93.52
2022-10-12T00:11:59.697Z,93.97
2022-10-12T00:17:15.342Z,94.02
2022-10-12T00:22:29.513Z,94.03
2022-10-12T00:27:47.652Z,94.11
2022-10-12T00:33:00.144Z,94.34
2022-10-12T00:38:06.662Z,94.13
2022-10-12T00:43:30.979Z,94.98
2022-10-12T00:48:45.912Z,95.38
2022-10-12T00:54:00.858Z,95.15
2022-10-12T00:59:31.152Z,95.14
2022-10-12T01:04:49.238Z,95.98
2022-10-12T01:10:02.585Z,95.01
2022-10-12T01:15:17.942Z,95.82
2022-10-12T01:21:03.368Z,96.18
2022-10-12T01:26:58.390Z,95.84
2022-10-12T01:32:16.302Z,95.97
2022-10-12T01:37:53.826Z,95.50
2022-10-12T01:43:36.934Z,96.84
2022-10-12T01:48:53.522Z,96.62
2022-10-12T01:54:24.422Z,97.10
2022-10-12T01:59:58.516Z,96.45
2022-10-12T02:05:39.836Z,95.63
2022-10-12T02:11:00.192Z,96.12
2022-10-12T02:16:23.512Z,95.72
2022-10-12T02:21:44.858Z,96.42
2022-10-12T02:26:57.219Z,95.86
2022-10-12T02:32:09.920Z,96.71
2022-10-12T02:37:27.755Z,97.32
2022-10-12T02:43:08.761Z,97.05
2022-10-12T02:48:12.785Z,96.35
2022-10-12T02:53:33.856Z,96.30
2022-10-12T02:58:42.138Z,96.18
2022-10-12T03:04:01.123Z,96.58
2022-10-12T03:09:14.664Z,96.64
2022-10-12T03:14:23.927Z,97.20
2022-10-12T03:19:38.192Z,96.97
2022-10-12T03:30:19.680Z,96.84
2022-10-12T03:35:32.967Z,97.14
2022-10-12T03:40:44.250Z,96.96
2022-10-12T03:45:54.524Z,97.06
2022-10-12T03:51:09.932Z,97.90
2022-10-12T03:56:24.966Z,97.81
2022-10-12T04:01:32.563Z,98.03
2022-10-12T04:06:42.360Z,98.37
2022-10-12T04:11:58.045Z,98.35
2022-10-12T04:17:09.723Z,98.69
2022-10-12T04:22:14.053Z,97.72
2022-10-12T04:27:25.694Z,98.00
2022-10-12T04:32:33.671Z,98.25
2022-10-12T04:43:14.104Z,98.74
2022-10-12T04:48:32.884Z,99.10
2022-10-12T04:59:28.542Z,98.96
2022-10-12T05:04:42.950Z,98.28
2022-10-12T05:10:12.855Z,98.54
2022-10-12T05:15:33.463Z,98.61
2022-10-12T05:20:38.779Z,97.81
2022-10-12T05:25:49.467Z,98.28
2022-10-12T05:31:19.336Z,97.98
2022-10-12T05:36:29.168Z,98.32
2022-10-12T05:41:44.464Z,97.64
2022-10-12T05:46:51.363Z,97.92
2022-10-12T05:51:57.954Z,97.48
2022-10-12T05:57:13.573Z,97.98
2022-10-12T06:02:24.885Z,97.68
2022-10-12T06:07:54.883Z,98.31
2022-10-12T06:13:05.807Z,97.97
2022-10-12T06:18:45.781Z,97.98
2022-10-12T06:24:06.221Z,97.34
2022-10-12T06:29:17.086Z,97.85
2022-10-12T06:34:42.888Z,97.18
2022-10-12T06:40:11.299Z,97.73
2022-10-12T06:45:22.003Z,96.28
2022-10-12T06:50:43.781Z,96.08
2022-10-12T06:55:54.747Z,93.74
2022-10-12T07:06:42.798Z,93.08
2022-10-12T07:12:13.113Z,92.27
2022-10-12T07:17:37.396Z,91.89
2022-10-12T07:22:52.430Z,90.95
2022-10-12T07:27:56.444Z,89.82
2022-10-12T07:33:02.940Z,90.05
2022-10-12T07:38:17.969Z,88.51
2022-10-12T07:43:38.121Z,87.66
2022-10-12T07:48:50.082Z,84.25
2022-10-12T07:54:02.539Z,83.29
2022-10-12T07:59:08.806Z,82.93
2022-10-12T08:04:41.230Z,80.34
2022-10-12T08:09:53.130Z,79.77
2022-10-12T08:14:59.809Z,80.08
2022-10-12T08:20:07.021Z,79.32
2022-10-12T08:25:21.680Z,78.68
2022-10-12T08:30:44.654Z,77.70
2022-10-12T08:36:09.080Z,77.48
2022-10-12T08:41:32.462Z,76.35
2022-10-12T08:46:53.471Z,75.88
2022-10-12T08:52:11.467Z,76.31
2022-10-12T08:57:21.600Z,74.49
2022-10-12T09:02:56.401Z,72.62
2022-10-12T09:08:07.367Z,72.06
2022-10-12T09:13:23.786Z,72.13
2022-10-12T09:18:43.592Z,70.70
2022-10-12T09:23:48.249Z,70.49
2022-10-12T09:29:00.444Z,69.93
2022-10-12T09:34:08.582Z,70.83
2022-10-12T09:39:32.728Z,68.91
2022-10-12T09:44:44.826Z,68.49
2022-10-12T09:49:55.385Z,67.17
2022-10-12T09:55:07.774Z,66.11
2022-10-12T10:00:36.490Z,65.55
2022-10-12T10:05:43.611Z,66.01
2022-10-12T10:10:58.179Z,64.77
2022-10-12T10:16:16.520Z,64.08
2022-10-12T10:21:36.443Z,63.40
2022-10-12T10:27:00.843Z,61.98
2022-10-12T10:32:45.822Z,61.49
2022-10-12T10:38:02.776Z,60.74
2022-10-12T10:43:25.624Z,60.87
2022-10-12T10:48:58.130Z,61.11
2022-10-12T10:54:18.653Z,60.32
2022-10-12T10:59:36.198Z,60.49
2022-10-12T11:04:54.761Z,60.31
2022-10-12T11:10:02.186Z,59.24
2022-10-12T11:15:23.618Z,59.87
2022-10-12T11:20:41.515Z,59.55
2022-10-12T11:26:02.860Z,58.46
2022-10-12T11:31:17.462Z,58.86
2022-10-12T11:36:33.595Z,58.17
2022-10-12T11:42:09.823Z,58.55
2022-10-12T11:47:36.393Z,57.91
2022-10-12T11:52:55.340Z,57.72
2022-10-12T11:58:12.544Z,57.12
2022-10-12T12:03:29.497Z,57.59
2022-10-12T12:09:14.140Z,56.88
2022-10-12T12:15:16.602Z,56.61
2022-10-12T12:20:58.710Z,56.98
2022-10-12T12:26:20.836Z,56.89
2022-10-12T12:31:38.868Z,57.03
2022-10-12T12:36:48.429Z,56.56
2022-10-12T12:42:12.432Z,56.73
2022-10-12T12:52:52.198Z,57.02
2022-10-12T12:58:20.420Z,57.08
2022-10-12T13:04:00.164Z,56.74
2022-10-12T13:09:25.568Z,57.20
2022-10-12T13:15:08.742Z,57.15
2022-10-12T13:20:43.220Z,57.66
2022-10-12T13:26:06.448Z,57.85
2022-10-12T13:31:24.359Z,57.61
2022-10-12T13:36:33.008Z,58.38
2022-10-12T13:41:43.460Z,57.97
2022-10-12T13:47:10.111Z,57.60
2022-10-12T13:52:30.939Z,58.03
2022-10-12T13:57:50.758Z,57.63
2022-10-12T14:03:03.477Z,57.49
2022-10-12T14:08:17.409Z,57.96
2022-10-12T14:13:32.214Z,58.26
2022-10-12T14:18:41.538Z,58.56
2022-10-12T14:23:53.392Z,58.59
2022-10-12T14:29:02.463Z,58.86
2022-10-12T14:34:37.294Z,59.05
2022-10-12T14:39:44.145Z,59.50
2022-10-12T14:44:50.673Z,59.41
2022-10-12T14:50:01.631Z,59.47
2022-10-12T14:55:13.644Z,59.83
2022-10-12T15:00:25.857Z,60.30
2022-10-12T15:05:44.845Z,60.33
2022-10-12T15:11:09.507Z,60.78
2022-10-12T15:16:29.474Z,60.68
2022-10-12T15:21:42.536Z,61.00
2022-10-12T15:27:01.405Z,61.23
2022-10-12T15:32:08.765Z,61.47
2022-10-12T15:37:31.996Z,63.33
2022-10-12T15:42:39.504Z,63.39
2022-10-12T15:47:53.930Z,63.07
2022-10-12T15:53:27.774Z,64.31
2022-10-12T15:58:41.159Z,65.27
2022-10-12T16:03:53.563Z,65.74
2022-10-12T16:09:05.497Z,67.53
2022-10-12T16:14:14.546Z,68.03
2022-10-12T16:19:19.591Z,68.01
2022-10-12T16:24:32.258Z,68.89
2022-10-12T16:29:41.261Z,69.66
2022-10-12T16:34:54.659Z,70.49
2022-10-12T16:40:05.637Z,71.48
2022-10-12T16:45:15.986Z,72.06
2022-10-12T16:50:45.574Z,72.54
2022-10-12T16:55:54.778Z,73.10
2022-10-12T17:01:14.602Z,73.53
2022-10-12T17:06:21.770Z,73.74
2022-10-12T17:11:33.164Z,75.08
2022-10-12T17:17:02.791Z,75.04
2022-10-12T17:22:25.116Z,76.10
2022-10-12T17:27:43.426Z,74.66
2022-10-12T17:32:59.646Z,74.71
2022-10-12T17:38:19.018Z,74.38
2022-10-12T17:43:45.888Z,74.40
2022-10-12T17:48:53.900Z,74.25
2022-10-12T17:54:02.880Z,74.22
2022-10-12T18:04:49.614Z,74.62
2022-10-12T18:10:00.576Z,74.30
2022-10-12T18:15:31.343Z,74.86
2022-10-12T18:20:46.348Z,74.68
2022-10-12T18:25:56.140Z,75.30
2022-10-12T18:31:06.583Z,75.77
2022-10-12T18:36:19.580Z,75.79
2022-10-12T18:41:29.598Z,75.62
2022-10-12T18:46:47.450Z,76.09
2022-10-12T18:52:08.340Z,76.31
2022-10-12T18:57:18.678Z,76.32
2022-10-12T19:02:25.818Z,76.30
2022-10-12T19:07:36.741Z,76.13
2022-10-12T19:12:45.650Z,76.57
2022-10-12T19:17:59.340Z,77.03
2022-10-12T19:23:07.607Z,77.08
2022-10-12T19:28:12.187Z,77.02
2022-10-12T19:33:20.744Z,77.18
2022-10-12T19:38:30.000Z,77.01
2022-10-12T19:43:43.379Z,77.34
2022-10-12T19:48:56.530Z,77.39
2022-10-12T19:54:09.546Z,77.21
2022-10-12T20:06:18.014Z,77.79
2022-10-12T20:11:26.770Z,77.63
2022-10-12T20:16:35.765Z,77.95
2022-10-12T20:21:42.454Z,77.83
2022-10-12T20:26:47.353Z,78.34
2022-10-12T20:32:05.006Z,78.38
2022-10-12T20:37:22.186Z,79.00
2022-10-12T20:42:30.575Z,79.28
2022-10-12T20:47:37.861Z,78.80
2022-10-12T20:52:48.488Z,78.45
2022-10-12T20:57:56.998Z,78.97
2022-10-12T21:03:03.393Z,78.78
2022-10-12T21:08:16.065Z,78.56
2022-10-12T21:13:28.749Z,79.31
2022-10-12T21:18:38.511Z,79.22
2022-10-12T21:23:48.811Z,79.86
2022-10-12T21:29:03.846Z,80.14
2022-10-12T21:34:26.733Z,80.73
2022-10-12T21:39:44.595Z,80.62
2022-10-12T21:44:53.530Z,81.12
2022-10-12T21:49:59.746Z,82.04
2022-10-12T21:55:07.181Z,82.37
2022-10-12T22:00:14.674Z,82.51
2022-10-12T22:05:23.210Z,83.22
2022-10-12T22:10:40.211Z,83.55
2022-10-12T22:21:40.203Z,84.23
2022-10-12T22:27:13.396Z,85.57
2022-10-12T22:32:43.922Z,85.67
2022-10-12T22:37:51.087Z,86.26
2022-10-12T22:43:18.107Z,87.37
2022-10-12T22:48:25.306Z,88.22
2022-10-12T22:53:32.607Z,89.15
2022-10-12T22:58:46.408Z,89.77
2022-10-12T23:03:50.801Z,89.93
2022-10-12T23:09:00.459Z,89.74
2022-10-12T23:14:07.472Z,90.48
2022-10-12T23:19:18.673Z,92.30
2022-10-12T23:24:23.305Z,91.61
2022-10-12T23:29:30.248Z,91.95
2022-10-12T23:34:38.006Z,92.01
2022-10-12T23:39:45.423Z,93.15
2022-10-12T23:45:06.371Z,93.77
2022-10-12T23:50:12.222Z,93.43
2022-10-12T23:55:20.088Z,94.40
